createdAt,value
2018-05-17T00:01:36.853Z,99.90
2018-05-17T00:04:05.113Z,99.90
2018-05-17T00:06:32.593Z,99.90
2018-05-17T00:09:00.076Z,99.90
2018-05-17T00:11:27.540Z,99.90
2018-05-17T00:13:55.041Z,99.90
2018-05-17T00:16:22.514Z,99.90
2018-05-17T00:18:49.985Z,99.90
2018-05-17T00:21:17.476Z,99.90
2018-05-17T00:23:44.949Z,99.90
2018-05-17T00:26:12.416Z,99.90
2018-05-17T00:28:39.925Z,99.90
2018-05-17T00:31:07.432Z,99.90
2018-05-17T00:33:34.900Z,99.90
2018-05-17T00:36:02.464Z,99.90
2018-05-17T00:38:29.933Z,99.90
2018-05-17T00:40:58.205Z,99.90
2018-05-17T00:43:25.714Z,99.90
2018-05-17T00:45:53.212Z,99.90
2018-05-17T00:48:20.818Z,99.90
2018-05-17T00:50:48.229Z,99.90
2018-05-17T00:53:28.472Z,99.90
2018-05-17T00:55:55.944Z,99.90
2018-05-17T00:58:23.458Z,99.90
2018-05-17T01:00:51.086Z,99.90
2018-05-17T01:03:19.337Z,99.90
2018-05-17T01:05:46.813Z,99.90
2018-05-17T01:08:14.313Z,99.90
2018-05-17T01:10:41.901Z,99.90
2018-05-17T01:13:09.369Z,99.90
2018-05-17T01:15:36.884Z,99.90
2018-05-17T01:18:04.448Z,99.90
2018-05-17T01:20:31.928Z,99.90
2018-05-17T01:22:59.395Z,99.90
2018-05-17T01:25:26.868Z,99.90
2018-05-17T01:27:55.106Z,99.90
2018-05-17T01:30:22.569Z,99.90
2018-05-17T01:32:50.124Z,99.90
2018-05-17T01:35:17.612Z,99.90
2018-05-17T01:37:57.092Z,99.90
2018-05-17T01:40:24.557Z,99.90
2018-05-17T01:42:52.061Z,99.90
2018-05-17T01:45:19.560Z,99.90
2018-05-17T01:47:47.040Z,99.90
2018-05-17T01:50:14.517Z,99.90
2018-05-17T01:52:42.001Z,99.90
2018-05-17T01:55:09.468Z,99.90
2018-05-17T01:57:36.965Z,99.90
2018-05-17T02:00:04.435Z,99.90
2018-05-17T02:02:31.924Z,99.90
2018-05-17T02:04:59.406Z,99.90
2018-05-17T02:07:26.874Z,99.90
2018-05-17T02:09:54.385Z,99.90
2018-05-17T02:12:21.856Z,99.90
2018-05-17T02:14:49.321Z,99.90
2018-05-17T02:17:16.829Z,99.90
2018-05-17T02:19:44.312Z,99.90
2018-05-17T02:22:11.780Z,99.90
2018-05-17T02:24:39.253Z,99.90
2018-05-17T02:27:06.721Z,99.90
2018-05-17T02:29:34.985Z,99.90
2018-05-17T02:32:02.449Z,99.90
2018-05-17T02:34:29.916Z,99.90
2018-05-17T02:36:57.382Z,99.90
2018-05-17T02:39:24.904Z,99.90
2018-05-17T02:41:52.384Z,99.90
2018-05-17T02:44:19.869Z,99.90
2018-05-17T02:46:47.370Z,99.90
2018-05-17T02:49:14.893Z,99.90
2018-05-17T02:51:42.444Z,99.90
2018-05-17T02:54:09.923Z,99.90
2018-05-17T02:56:37.416Z,99.90
2018-05-17T02:59:04.894Z,99.90
2018-05-17T03:01:32.395Z,99.90
2018-05-17T03:03:59.866Z,99.90
2018-05-17T03:06:27.341Z,99.90
2018-05-17T03:08:54.812Z,99.90
2018-05-17T03:11:22.337Z,99.90
2018-05-17T03:13:49.900Z,99.90
2018-05-17T03:16:17.400Z,99.90
2018-05-17T03:18:44.864Z,99.90
2018-05-17T03:21:12.328Z,99.90
2018-05-17T03:23:39.797Z,99.90
2018-05-17T03:26:07.365Z,99.90
2018-05-17T03:28:35.604Z,99.90
2018-05-17T03:31:03.070Z,99.90
2018-05-17T03:33:30.548Z,99.90
2018-05-17T03:35:58.862Z,99.90
2018-05-17T03:38:27.092Z,99.90
2018-05-17T03:40:54.574Z,99.90
2018-05-17T03:43:22.056Z,99.90
2018-05-17T03:45:49.576Z,99.90
2018-05-17T03:48:17.163Z,99.90
2018-05-17T03:50:44.657Z,99.90
2018-05-17T03:53:12.115Z,99.90
2018-05-17T03:55:39.588Z,99.90
2018-05-17T03:58:07.124Z,99.90
2018-05-17T04:00:46.633Z,99.90
2018-05-17T04:03:26.968Z,99.90
2018-05-17T04:06:06.432Z,99.90
2018-05-17T04:08:33.964Z,99.90
2018-05-17T04:11:01.389Z,99.90
2018-05-17T04:13:28.872Z,99.90
2018-05-17T04:15:56.339Z,99.90
2018-05-17T04:18:23.812Z,99.90
2018-05-17T04:20:52.049Z,99.90
2018-05-17T04:23:19.516Z,99.90
2018-05-17T04:25:47.750Z,99.90
2018-05-17T04:28:15.351Z,99.90
2018-05-17T04:30:42.862Z,99.90
2018-05-17T04:33:10.356Z,99.90
2018-05-17T04:35:37.834Z,99.90
2018-05-17T04:38:05.306Z,99.90
2018-05-17T04:40:33.637Z,99.90
2018-05-17T04:43:01.093Z,99.90
2018-05-17T04:45:29.357Z,99.90
2018-05-17T04:47:56.825Z,99.90
2018-05-17T04:50:24.408Z,99.90
2018-05-17T04:52:53.409Z,99.90
2018-05-17T04:55:20.885Z,99.90
2018-05-17T04:57:48.571Z,99.90
2018-05-17T05:00:16.215Z,99.90
2018-05-17T05:02:44.526Z,99.90
2018-05-17T05:05:12.004Z,99.90
2018-05-17T05:07:39.486Z,99.90
2018-05-17T05:10:06.964Z,99.90
2018-05-17T05:12:35.217Z,99.90
2018-05-17T05:15:02.696Z,99.90
2018-05-17T05:17:30.164Z,99.90
2018-05-17T05:19:58.503Z,99.90
2018-05-17T05:22:25.974Z,99.90
2018-05-17T05:24:53.442Z,99.90
2018-05-17T05:27:20.911Z,99.90
2018-05-17T05:29:48.382Z,99.90
2018-05-17T05:32:16.617Z,99.90
2018-05-17T05:34:44.116Z,99.90
2018-05-17T05:37:11.604Z,99.90
2018-05-17T05:39:39.072Z,99.90
2018-05-17T05:42:06.589Z,99.90
2018-05-17T05:44:34.065Z,99.90
2018-05-17T05:47:01.558Z,99.90
2018-05-17T05:49:29.055Z,99.90
2018-05-17T05:51:56.625Z,99.90
2018-05-17T05:54:24.091Z,99.90
2018-05-17T05:56:51.560Z,99.90
2018-05-17T05:59:19.085Z,99.90
2018-05-17T06:01:46.630Z,99.90
2018-05-17T06:04:14.861Z,99.90
2018-05-17T06:06:42.392Z,99.90
2018-05-17T06:09:09.890Z,99.90
2018-05-17T06:11:37.342Z,99.90
2018-05-17T06:14:04.810Z,99.90
2018-05-17T06:16:32.301Z,99.90
2018-05-17T06:18:59.805Z,99.90
2018-05-17T06:21:28.098Z,99.90
2018-05-17T06:23:55.560Z,99.90
2018-05-17T06:26:23.029Z,99.90
2018-05-17T06:28:50.505Z,99.90
2018-05-17T06:31:17.977Z,99.90
2018-05-17T06:33:46.220Z,99.90
2018-05-17T06:36:13.686Z,99.90
2018-05-17T06:38:41.216Z,99.90
2018-05-17T06:41:08.690Z,99.90
2018-05-17T06:43:36.184Z,99.90
2018-05-17T06:46:03.652Z,99.90
2018-05-17T06:48:31.180Z,99.90
2018-05-17T06:50:58.661Z,99.90
2018-05-17T06:53:26.917Z,99.90
2018-05-17T06:55:54.425Z,99.90
2018-05-17T06:58:21.955Z,99.90
2018-05-17T07:00:49.461Z,99.90
2018-05-17T07:03:16.937Z,99.90
2018-05-17T07:05:45.172Z,99.90
2018-05-17T07:08:13.408Z,99.90
2018-05-17T07:10:40.932Z,99.90
2018-05-17T07:13:08.449Z,99.90
2018-05-17T07:15:35.953Z,99.90
2018-05-17T07:18:03.570Z,99.90
2018-05-17T07:20:30.961Z,99.90
2018-05-17T07:22:58.464Z,99.90
2018-05-17T07:25:25.936Z,99.90
2018-05-17T07:27:53.404Z,99.90
2018-05-17T07:30:20.876Z,99.90
2018-05-17T07:32:49.108Z,99.90
2018-05-17T07:35:16.634Z,99.90
2018-05-17T07:37:44.100Z,99.90
2018-05-17T07:40:11.565Z,99.90
2018-05-17T07:42:39.037Z,99.90
2018-05-17T07:45:07.338Z,99.90
2018-05-17T07:47:35.577Z,99.90
2018-05-17T07:50:03.062Z,99.90
2018-05-17T07:52:30.569Z,99.90
2018-05-17T07:54:58.049Z,99.90
2018-05-17T07:57:25.557Z,99.90
2018-05-17T07:59:53.037Z,99.30
2018-05-17T08:02:20.525Z,98.20
2018-05-17T08:04:48.006Z,95.70
2018-05-17T08:07:15.488Z,93.70
2018-05-17T08:09:42.957Z,93.80
2018-05-17T08:12:10.420Z,92.40
2018-05-17T08:14:37.896Z,90.80
2018-05-17T08:17:05.362Z,90.60
2018-05-17T08:19:33.591Z,91.10
2018-05-17T08:22:01.064Z,91.10
2018-05-17T08:24:28.529Z,93.30
2018-05-17T08:26:56.008Z,91.70
2018-05-17T08:29:23.550Z,93.50
2018-05-17T08:31:51.017Z,95.90
2018-05-17T08:34:18.501Z,94.90
2018-05-17T08:36:46.017Z,94.70
2018-05-17T08:39:13.462Z,94.80
2018-05-17T08:41:40.955Z,93.10
2018-05-17T08:44:08.424Z,92.10
2018-05-17T08:46:35.932Z,91.40
2018-05-17T08:49:03.405Z,91.60
2018-05-17T08:51:30.896Z,91.50
2018-05-17T08:53:58.516Z,90.70
2018-05-17T08:56:26.782Z,88.90
2018-05-17T08:58:54.255Z,88.90
2018-05-17T09:01:21.790Z,88.00
2018-05-17T09:03:50.019Z,86.00
2018-05-17T09:06:17.532Z,86.00
2018-05-17T09:08:44.969Z,85.10
2018-05-17T09:11:13.200Z,84.90
2018-05-17T09:13:40.780Z,84.80
2018-05-17T09:16:08.200Z,87.30
2018-05-17T09:18:35.665Z,89.90
2018-05-17T09:21:03.132Z,90.20
2018-05-17T09:23:30.645Z,91.10
2018-05-17T09:25:58.124Z,91.00
2018-05-17T09:28:25.596Z,92.30
2018-05-17T09:30:53.064Z,93.10
2018-05-17T09:33:20.580Z,94.30
2018-05-17T09:35:48.156Z,93.60
2018-05-17T09:38:15.532Z,93.50
2018-05-17T09:40:43.029Z,93.50
2018-05-17T09:43:10.493Z,93.00
2018-05-17T09:45:37.965Z,93.30
2018-05-17T09:48:05.483Z,92.20
2018-05-17T09:50:32.956Z,90.60
2018-05-17T09:53:00.429Z,84.60
2018-05-17T09:55:27.894Z,76.30
2018-05-17T09:57:56.148Z,59.20
2018-05-17T10:00:23.617Z,58.90
2018-05-17T10:02:51.136Z,58.90
2018-05-17T10:05:18.704Z,55.20
2018-05-17T10:07:46.176Z,48.50
2018-05-17T10:10:13.645Z,45.00
2018-05-17T10:12:41.120Z,45.00
2018-05-17T10:15:08.581Z,44.60
2018-05-17T10:17:36.820Z,46.10
2018-05-17T10:20:04.284Z,46.00
2018-05-17T10:22:31.815Z,45.80
2018-05-17T10:24:59.296Z,48.20
2018-05-17T10:27:26.777Z,49.90
2018-05-17T10:29:54.293Z,51.50
2018-05-17T10:32:21.781Z,50.90
2018-05-17T10:34:49.241Z,54.10
2018-05-17T10:37:16.743Z,56.90
2018-05-17T10:39:44.208Z,60.30
2018-05-17T10:42:11.710Z,61.80
2018-05-17T10:44:39.181Z,66.70
2018-05-17T10:47:06.645Z,68.50
2018-05-17T10:49:34.158Z,76.40
2018-05-17T10:52:01.625Z,75.20
2018-05-17T10:54:29.192Z,74.70
2018-05-17T10:56:56.597Z,74.00
2018-05-17T10:59:24.082Z,72.60
2018-05-17T11:01:51.549Z,71.10
2018-05-17T11:04:19.021Z,69.80
2018-05-17T11:06:46.546Z,67.20
2018-05-17T11:09:14.049Z,63.00
2018-05-17T11:11:41.516Z,57.90
2018-05-17T11:14:08.992Z,53.30
2018-05-17T11:16:36.497Z,53.20
2018-05-17T11:19:03.961Z,52.60
2018-05-17T11:21:31.479Z,51.20
2018-05-17T11:23:58.949Z,50.10
2018-05-17T11:26:26.431Z,48.30
2018-05-17T11:28:53.923Z,49.00
2018-05-17T11:31:21.393Z,52.20
2018-05-17T11:33:48.856Z,49.80
2018-05-17T11:36:16.385Z,52.50
2018-05-17T11:38:43.860Z,53.90
2018-05-17T11:41:11.362Z,49.80
2018-05-17T11:43:38.849Z,53.10
2018-05-17T11:46:06.910Z,51.10
2018-05-17T11:48:34.376Z,50.60
2018-05-17T11:51:01.845Z,49.90
2018-05-17T11:53:29.321Z,49.00
2018-05-17T11:55:56.796Z,50.10
2018-05-17T11:58:24.311Z,50.90
2018-05-17T12:00:51.794Z,49.60
2018-05-17T12:03:19.368Z,49.10
2018-05-17T12:05:46.841Z,53.70
2018-05-17T12:08:14.344Z,56.10
2018-05-17T12:10:41.808Z,55.60
2018-05-17T12:13:09.282Z,56.70
2018-05-17T12:15:36.752Z,58.40
2018-05-17T12:18:04.266Z,54.70
2018-05-17T12:20:31.725Z,51.80
2018-05-17T12:22:59.215Z,52.40
2018-05-17T12:25:26.673Z,50.40
2018-05-17T12:27:54.228Z,49.00
2018-05-17T12:30:21.704Z,51.50
2018-05-17T12:32:49.168Z,50.50
2018-05-17T12:35:16.634Z,50.50
2018-05-17T12:37:44.104Z,53.30
2018-05-17T12:40:11.665Z,55.20
2018-05-17T12:42:39.128Z,50.60
2018-05-17T12:45:07.076Z,49.00
2018-05-17T12:47:34.555Z,49.50
2018-05-17T12:50:02.027Z,48.20
2018-05-17T12:52:29.600Z,48.80
2018-05-17T12:54:57.074Z,52.20
2018-05-17T12:57:24.570Z,57.00
2018-05-17T12:59:52.033Z,59.10
2018-05-17T13:02:19.506Z,62.00
2018-05-17T13:04:47.766Z,67.00
2018-05-17T13:07:15.297Z,66.90
2018-05-17T13:09:43.528Z,62.70
2018-05-17T13:12:10.994Z,62.70
2018-05-17T13:14:39.252Z,65.70
2018-05-17T13:17:06.733Z,65.60
2018-05-17T13:19:34.200Z,63.10
2018-05-17T13:22:01.667Z,59.70
2018-05-17T13:24:29.128Z,59.20
2018-05-17T13:26:57.386Z,62.00
2018-05-17T13:29:24.870Z,61.90
2018-05-17T13:31:52.340Z,61.10
2018-05-17T13:34:19.805Z,60.40
2018-05-17T13:36:48.028Z,59.60
2018-05-17T13:39:15.511Z,59.60
2018-05-17T13:41:42.972Z,61.60
2018-05-17T13:44:10.447Z,61.30
2018-05-17T13:46:38.729Z,60.00
2018-05-17T13:49:06.291Z,60.00
2018-05-17T13:51:33.870Z,60.70
2018-05-17T13:54:01.336Z,62.60
2018-05-17T13:56:28.825Z,60.80
2018-05-17T13:58:56.298Z,60.00
2018-05-17T14:01:23.764Z,59.20
2018-05-17T14:03:51.328Z,58.80
2018-05-17T14:06:19.652Z,56.40
2018-05-17T14:08:47.178Z,56.40
2018-05-17T14:11:14.668Z,56.70
2018-05-17T14:13:42.242Z,54.80
2018-05-17T14:16:09.629Z,54.40
2018-05-17T14:18:37.352Z,55.90
2018-05-17T14:21:04.849Z,54.80
2018-05-17T14:23:32.320Z,53.70
2018-05-17T14:25:59.789Z,53.80
2018-05-17T14:28:27.292Z,55.10
2018-05-17T14:30:54.763Z,54.50
2018-05-17T14:33:22.220Z,54.60
2018-05-17T14:35:49.691Z,53.80
2018-05-17T14:38:17.222Z,55.90
2018-05-17T14:40:44.693Z,53.70
2018-05-17T14:43:12.189Z,53.50
2018-05-17T14:45:39.676Z,54.10
2018-05-17T14:48:07.132Z,53.90
2018-05-17T14:50:34.653Z,54.10
2018-05-17T14:53:02.130Z,51.30
2018-05-17T14:55:29.613Z,52.50
2018-05-17T14:57:57.078Z,51.40
2018-05-17T15:00:24.546Z,52.60
2018-05-17T15:02:52.013Z,52.50
2018-05-17T15:05:20.249Z,52.20
2018-05-17T15:07:47.757Z,52.20
2018-05-17T15:10:15.224Z,54.30
2018-05-17T15:12:42.722Z,52.50
2018-05-17T15:15:10.213Z,52.80
2018-05-17T15:17:37.788Z,54.30
2018-05-17T15:20:05.264Z,52.90
2018-05-17T15:22:32.761Z,53.70
2018-05-17T15:25:00.227Z,53.90
2018-05-17T15:27:28.583Z,52.70
2018-05-17T15:29:55.982Z,52.60
2018-05-17T15:32:23.455Z,53.10
2018-05-17T15:34:51.687Z,53.70
2018-05-17T15:37:19.158Z,53.70
2018-05-17T15:39:46.748Z,53.90
2018-05-17T15:42:14.225Z,54.80
2018-05-17T15:44:41.796Z,52.90
2018-05-17T15:47:09.334Z,54.20
2018-05-17T15:49:36.908Z,54.50
2018-05-17T15:52:04.392Z,55.90
2018-05-17T15:54:31.904Z,54.00
2018-05-17T15:56:59.400Z,55.90
2018-05-17T15:59:26.865Z,56.80
2018-05-17T16:01:54.513Z,57.10
2018-05-17T16:04:22.061Z,58.10
2018-05-17T16:06:49.566Z,57.30
2018-05-17T16:09:18.666Z,57.40
2018-05-17T16:11:46.269Z,57.40
2018-05-17T16:14:13.789Z,56.50
2018-05-17T16:17:01.321Z,57.70
2018-05-17T16:19:28.777Z,56.20
2018-05-17T16:21:57.943Z,57.20
2018-05-17T16:24:25.430Z,57.20
2018-05-17T16:26:52.892Z,58.20
2018-05-17T16:29:20.356Z,58.60
2018-05-17T16:31:48.619Z,55.00
2018-05-17T16:34:16.106Z,55.00
2018-05-17T16:36:43.673Z,55.60
2018-05-17T16:39:11.136Z,55.80
2018-05-17T16:41:38.761Z,57.60
2018-05-17T16:44:06.240Z,58.70
2018-05-17T16:46:33.790Z,58.20
2018-05-17T16:49:01.984Z,59.30
2018-05-17T16:51:29.445Z,59.20
2018-05-17T16:53:56.917Z,58.80
2018-05-17T16:56:24.433Z,59.00
2018-05-17T16:58:51.997Z,60.90
2018-05-17T17:01:19.398Z,59.30
2018-05-17T17:03:46.884Z,60.80
2018-05-17T17:06:14.353Z,58.80
2018-05-17T17:08:41.816Z,58.80
2018-05-17T17:11:10.116Z,59.80
2018-05-17T17:13:38.385Z,60.30
2018-05-17T17:16:05.857Z,60.20
2018-05-17T17:18:33.365Z,60.70
2018-05-17T17:21:00.855Z,61.40
2018-05-17T17:23:28.337Z,61.20
2018-05-17T17:25:55.826Z,62.50
2018-05-17T17:28:23.320Z,62.30
2018-05-17T17:30:50.878Z,64.50
2018-05-17T17:33:18.269Z,67.10
2018-05-17T17:35:45.736Z,64.60
2018-05-17T17:38:13.977Z,65.30
2018-05-17T17:40:47.110Z,64.80
2018-05-17T17:43:14.585Z,67.20
2018-05-17T17:45:42.050Z,66.00
2018-05-17T17:48:10.298Z,66.60
2018-05-17T17:50:37.773Z,66.60
2018-05-17T17:53:05.240Z,65.90
2018-05-17T17:55:32.748Z,67.90
2018-05-17T17:58:00.230Z,68.70
2018-05-17T18:00:27.731Z,68.70
2018-05-17T18:02:55.209Z,66.50
2018-05-17T18:05:22.693Z,68.00
2018-05-17T18:07:50.928Z,69.00
2018-05-17T18:10:18.433Z,69.00
2018-05-17T18:12:45.900Z,68.10
2018-05-17T18:15:13.406Z,70.00
2018-05-17T18:17:40.878Z,70.80
2018-05-17T18:20:08.336Z,69.80
2018-05-17T18:22:36.176Z,71.10
2018-05-17T18:25:03.744Z,69.40
2018-05-17T18:27:31.258Z,71.20
2018-05-17T18:29:58.729Z,70.90
2018-05-17T18:32:26.189Z,72.60
2018-05-17T18:34:53.662Z,73.30
2018-05-17T18:37:21.888Z,76.10
2018-05-17T18:39:49.369Z,76.10
2018-05-17T18:42:16.887Z,78.90
2018-05-17T18:44:44.395Z,77.70
2018-05-17T18:47:11.857Z,78.10
2018-05-17T18:49:39.331Z,79.70
2018-05-17T18:52:06.860Z,83.00
2018-05-17T18:54:34.366Z,81.90
2018-05-17T18:57:01.850Z,86.00
2018-05-17T18:59:29.269Z,86.90
2018-05-17T19:01:56.866Z,88.10
2018-05-17T19:04:24.288Z,89.00
2018-05-17T19:06:51.768Z,90.60
2018-05-17T19:09:19.221Z,91.40
2018-05-17T19:11:47.444Z,92.10
2018-05-17T19:14:14.985Z,92.10
2018-05-17T19:16:43.137Z,93.10
2018-05-17T19:19:10.604Z,93.20
2018-05-17T19:21:38.915Z,94.10
2018-05-17T19:24:06.496Z,94.10
2018-05-17T19:26:34.756Z,93.70
2018-05-17T19:29:02.242Z,93.70
2018-05-17T19:31:29.790Z,94.00
2018-05-17T19:33:57.220Z,94.20
2018-05-17T19:36:25.476Z,96.90
2018-05-17T19:38:53.019Z,96.90
2018-05-17T19:41:20.481Z,96.70
2018-05-17T19:43:47.940Z,97.40
2018-05-17T19:46:16.187Z,98.90
2018-05-17T19:48:43.647Z,98.90
2018-05-17T19:51:11.249Z,99.80
2018-05-17T19:53:38.747Z,99.90
2018-05-17T19:56:06.339Z,99.90
2018-05-17T19:58:33.821Z,99.90
2018-05-17T20:01:01.373Z,99.90
2018-05-17T20:03:28.974Z,99.90
2018-05-17T20:05:57.272Z,99.90
2018-05-17T20:08:25.500Z,99.90
2018-05-17T20:10:52.996Z,99.90
2018-05-17T20:13:21.254Z,99.90
2018-05-17T20:15:48.736Z,99.90
2018-05-17T20:18:16.195Z,99.90
2018-05-17T20:20:43.658Z,99.90
2018-05-17T20:23:11.184Z,99.90
2018-05-17T20:25:38.869Z,99.90
2018-05-17T20:28:06.331Z,99.90
2018-05-17T20:30:34.560Z,99.90
2018-05-17T20:33:02.045Z,99.90
2018-05-17T20:35:29.557Z,99.90
2018-05-17T20:37:57.203Z,99.90
2018-05-17T20:40:24.805Z,99.90
2018-05-17T20:42:52.423Z,99.90
2018-05-17T20:45:20.665Z,99.90
2018-05-17T20:47:48.349Z,99.90
2018-05-17T20:50:15.873Z,99.90
2018-05-17T20:52:43.520Z,99.90
2018-05-17T20:55:11.126Z,99.90
2018-05-17T20:57:38.512Z,99.90
2018-05-17T21:00:05.972Z,99.90
2018-05-17T21:02:33.498Z,99.90
2018-05-17T21:05:01.068Z,99.90
2018-05-17T21:07:28.529Z,99.90
2018-05-17T21:09:55.992Z,99.90
2018-05-17T21:12:23.513Z,99.90
2018-05-17T21:14:50.993Z,99.90
2018-05-17T21:17:18.525Z,99.90
2018-05-17T21:19:45.982Z,99.90
2018-05-17T21:22:13.456Z,99.90
2018-05-17T21:24:40.940Z,99.90
2018-05-17T21:27:08.486Z,99.90
2018-05-17T21:29:35.879Z,99.90
2018-05-17T21:32:03.347Z,99.90
2018-05-17T21:34:30.816Z,99.90
2018-05-17T21:36:59.042Z,99.90
2018-05-17T21:39:26.636Z,99.90
2018-05-17T21:41:54.025Z,99.90
2018-05-17T21:44:21.513Z,99.90
2018-05-17T21:46:49.000Z,99.90
2018-05-17T21:49:16.461Z,99.90
2018-05-17T21:51:43.919Z,99.90
2018-05-17T21:54:12.186Z,99.90
2018-05-17T21:56:39.668Z,99.90
2018-05-17T21:59:07.132Z,99.90
2018-05-17T22:01:34.611Z,99.90
2018-05-17T22:04:02.074Z,99.90
2018-05-17T22:06:30.300Z,99.90
2018-05-17T22:08:57.840Z,99.90
2018-05-17T22:11:25.412Z,99.90
2018-05-17T22:13:52.872Z,99.90
2018-05-17T22:16:20.376Z,99.90
2018-05-17T22:18:47.837Z,99.90
2018-05-17T22:21:15.345Z,99.90
2018-05-17T22:23:42.953Z,99.90
2018-05-17T22:26:10.412Z,99.90
2018-05-17T22:28:37.879Z,99.90
2018-05-17T22:31:05.395Z,99.90
2018-05-17T22:33:32.872Z,99.90
2018-05-17T22:36:00.367Z,99.90
2018-05-17T22:38:27.899Z,99.90
2018-05-17T22:40:55.457Z,99.90
2018-05-17T22:43:22.932Z,99.90
2018-05-17T22:45:50.389Z,99.90
2018-05-17T22:48:17.848Z,99.90
2018-05-17T22:50:46.100Z,99.90
2018-05-17T22:53:13.565Z,99.90
2018-05-17T22:55:41.061Z,99.90
2018-05-17T22:58:20.624Z,99.90
2018-05-17T23:00:48.117Z,99.90
2018-05-17T23:03:15.580Z,99.90
2018-05-17T23:05:43.044Z,99.90
2018-05-17T23:08:10.556Z,99.90
2018-05-17T23:10:38.044Z,99.90
2018-05-17T23:13:05.509Z,99.90
2018-05-17T23:15:32.976Z,99.90
2018-05-17T23:18:00.432Z,99.90
2018-05-17T23:20:28.692Z,99.90
2018-05-17T23:22:56.163Z,99.90
2018-05-17T23:25:23.632Z,99.90
2018-05-17T23:27:51.097Z,99.90
2018-05-17T23:30:18.564Z,99.90
2018-05-17T23:32:46.793Z,99.90
2018-05-17T23:35:14.264Z,99.90
2018-05-17T23:37:41.781Z,99.90
2018-05-17T23:40:21.352Z,99.90
2018-05-17T23:42:48.810Z,99.90
2018-05-17T23:45:16.319Z,99.90
2018-05-17T23:47:43.780Z,99.90
2018-05-17T23:50:11.280Z,99.90
2018-05-17T23:52:38.764Z,99.90
2018-05-17T23:55:06.265Z,99.90
2018-05-17T23:57:33.824Z,99.90
